Time;durP1;ratioP1;P1;durP2;ratioP2;P2;SDS_P1;SDS_P2;PMS_P1;PMS_P2;Temp;Humidity;BMP_temperature;BMP_pressure;BME280_temperature;BME280_humidity;BME280_pressure;Samples;Min_cycle;Max_cycle;Signal;HPM_P1;HPM_P2
2022/05/26 00:01:05;;;;;;;12.93;5.03;;;10.60;99.90;;;;;;5048961;28;20044;-83
2022/05/26 00:03:32;;;;;;;9.65;4.68;;;10.60;99.90;;;;;;5040695;28;20041;-83
2022/05/26 00:06:00;;;;;;;7.25;4.35;;;10.60;99.90;;;;;;5043752;28;20026;-83
2022/05/26 00:08:26;;;;;;;7.72;3.90;;;10.70;99.90;;;;;;5051308;28;20522;-82
2022/05/26 00:10:53;;;;;;;8.38;4.57;;;10.70;99.90;;;;;;5040936;28;20114;-86
2022/05/26 00:13:18;;;;;;;8.02;4.63;;;10.60;99.90;;;;;;5057274;28;20021;-83
2022/05/26 00:15:44;;;;;;;12.48;5.57;;;10.60;99.90;;;;;;5033448;28;20076;-83
2022/05/26 00:18:10;;;;;;;7.90;5.03;;;10.60;99.90;;;;;;5028012;28;20496;-83
2022/05/26 00:20:36;;;;;;;14.70;5.22;;;10.60;99.90;;;;;;5038683;28;20041;-83
2022/05/26 00:23:02;;;;;;;7.70;4.45;;;10.60;99.90;;;;;;5036155;28;20584;-84
2022/05/26 00:25:28;;;;;;;7.00;4.30;;;10.60;99.90;;;;;;5031620;28;20554;-84
2022/05/26 00:27:54;;;;;;;6.85;4.10;;;10.50;99.90;;;;;;5040875;28;20120;-83
2022/05/26 00:30:20;;;;;;;8.30;4.88;;;10.40;99.90;;;;;;5036050;28;20120;-84
2022/05/26 00:32:46;;;;;;;10.88;5.07;;;10.30;99.90;;;;;;5043159;28;20410;-83
2022/05/26 00:35:12;;;;;;;9.90;4.97;;;10.40;99.90;;;;;;5041385;28;20036;-87
2022/05/26 00:37:38;;;;;;;13.27;5.68;;;10.30;99.90;;;;;;5040129;28;20030;-83
2022/05/26 00:40:06;;;;;;;9.23;4.45;;;10.30;99.90;;;;;;5037974;28;20021;-83
2022/05/26 00:42:31;;;;;;;6.80;3.92;;;10.20;99.90;;;;;;5051678;28;20443;-84
2022/05/26 00:44:57;;;;;;;7.28;5.05;;;10.20;99.90;;;;;;5035998;28;20021;-85
2022/05/26 00:47:28;;;;;;;7.07;5.25;;;10.20;99.90;;;;;;5042034;28;20100;-86
2022/05/26 00:49:56;;;;;;;;;;;10.10;99.90;;;;;;5050380;28;20033;-84
2022/05/26 00:52:37;;;;;;;8.00;4.85;;;10.20;99.90;;;;;;5035646;28;19909;-84
2022/05/26 00:55:31;;;;;;;9.82;5.18;;;10.20;99.90;;;;;;5032243;28;20143;-83
2022/05/26 00:58:22;;;;;;;7.72;4.28;;;10.10;99.90;;;;;;5021514;28;20037;-83
2022/05/26 01:00:49;;;;;;;8.10;4.15;;;10.00;99.90;;;;;;5039193;28;20041;-84
2022/05/26 01:03:24;;;;;;;8.45;4.88;;;10.00;99.90;;;;;;5036416;28;20048;-83
2022/05/26 01:06:07;;;;;;;11.48;5.78;;;10.00;99.90;;;;;;5041718;28;20059;-82
2022/05/26 01:08:37;;;;;;;7.90;5.30;;;10.10;99.90;;;;;;5040921;28;20488;-83
2022/05/26 01:11:03;;;;;;;8.95;5.18;;;10.00;99.90;;;;;;5036423;28;20029;-83
2022/05/26 01:13:30;;;;;;;8.88;4.95;;;10.00;99.90;;;;;;5041748;28;20029;-84
2022/05/26 01:16:11;;;;;;;11.98;6.28;;;10.00;99.90;;;;;;5052957;28;20034;-85
2022/05/26 01:19:22;;;;;;;9.40;5.97;;;10.00;99.90;;;;;;5036821;28;20033;-84
2022/05/26 01:21:51;;;;;;;;;;;9.90;99.90;;;;;;5031134;28;20038;-83
2022/05/26 01:24:52;;;;;;;9.75;5.45;;;9.80;99.90;;;;;;5033996;28;20380;-83
2022/05/26 01:27:35;;;;;;;8.13;5.18;;;9.80;99.90;;;;;;5037095;28;20021;-86
2022/05/26 01:30:19;;;;;;;11.93;5.30;;;9.70;99.90;;;;;;5044384;28;20033;-84
2022/05/26 01:33:11;;;;;;;12.27;5.10;;;9.80;99.90;;;;;;5032242;28;20124;-85
2022/05/26 01:36:03;;;;;;;9.00;5.65;;;9.80;99.90;;;;;;5033379;28;20021;-85
2022/05/26 01:39:04;;;;;;;7.38;5.70;;;9.80;99.90;;;;;;5041197;28;20100;-84
2022/05/26 01:41:48;;;;;;;9.38;5.53;;;9.70;99.90;;;;;;4946870;29;20714;-82
2022/05/26 01:44:29;;;;;;;9.85;5.25;;;9.70;99.90;;;;;;5032724;28;20342;-83
2022/05/26 01:47:01;;;;;;;9.55;4.95;;;9.70;99.90;;;;;;5032860;28;20029;-84
2022/05/26 01:49:33;;;;;;;8.10;5.50;;;9.70;99.90;;;;;;5026345;28;20025;-84
2022/05/26 01:52:01;;;;;;;9.40;5.25;;;9.70;99.90;;;;;;5033092;28;20032;-85
2022/05/26 01:54:58;;;;;;;10.10;4.97;;;9.70;99.90;;;;;;5049498;28;20373;-85
2022/05/26 01:57:43;;;;;;;11.50;5.70;;;9.70;99.90;;;;;;5026158;28;20025;-84
2022/05/26 02:00:18;;;;;;;9.88;5.90;;;9.90;99.90;;;;;;5034767;28;20027;-85
2022/05/26 02:03:01;;;;;;;8.25;5.30;;;10.00;99.90;;;;;;5015565;28;20033;-83
2022/05/26 02:05:32;;;;;;;10.75;6.00;;;10.10;99.90;;;;;;5022794;28;20036;-84
2022/05/26 02:08:04;;;;;;;13.07;7.10;;;10.30;99.90;;;;;;5055370;28;20028;-84
2022/05/26 02:10:41;;;;;;;9.63;5.97;;;10.30;99.90;;;;;;5047885;28;20496;-84
2022/05/26 02:13:14;;;;;;;10.15;7.22;;;10.30;99.90;;;;;;5019661;28;20034;-84
2022/05/26 02:15:48;;;;;;;8.52;6.32;;;10.30;99.90;;;;;;5029442;28;20099;-85
2022/05/26 02:18:21;;;;;;;10.70;6.80;;;10.20;99.90;;;;;;5020441;28;20026;-85
2022/05/26 02:20:58;;;;;;;12.02;6.25;;;10.10;99.90;;;;;;5021552;28;20493;-85
2022/05/26 02:24:01;;;;;;;11.52;6.45;;;10.10;99.90;;;;;;5030746;28;20692;-83
2022/05/26 02:26:30;;;;;;;10.60;5.95;;;9.90;99.90;;;;;;5027135;28;20624;-84
2022/05/26 02:31:42;;;;;;;12.15;7.07;;;9.80;99.90;;;;;;5037834;28;20045;-83
2022/05/26 02:34:09;;;;;;;12.10;6.65;;;9.80;99.90;;;;;;5039346;28;20025;-83
2022/05/26 02:36:37;;;;;;;14.60;6.47;;;9.60;99.90;;;;;;5036914;28;20112;-84
2022/05/26 02:39:05;;;;;;;14.75;6.90;;;9.60;99.90;;;;;;5035496;28;20368;-83
2022/05/26 02:41:32;;;;;;;10.35;5.68;;;9.60;99.90;;;;;;5032547;28;20030;-84
2022/05/26 02:43:58;;;;;;;10.15;6.60;;;9.70;99.90;;;;;;5036783;28;20052;-85
2022/05/26 02:46:50;;;;;;;8.77;5.72;;;9.90;99.90;;;;;;5033217;28;20032;-84
2022/05/26 02:49:53;;;;;;;10.98;6.53;;;10.00;99.90;;;;;;5037953;28;20040;-85
2022/05/26 02:53:00;;;;;;;8.85;6.00;;;10.20;99.90;;;;;;5048261;28;20025;-83
2022/05/26 02:56:03;;;;;;;9.73;6.22;;;10.30;99.90;;;;;;5030266;28;20021;-82
2022/05/26 02:58:50;;;;;;;9.20;6.32;;;10.30;99.90;;;;;;5032196;28;20018;-84
2022/05/26 03:01:40;;;;;;;10.38;6.32;;;10.40;99.90;;;;;;5048340;28;20041;-85
2022/05/26 03:04:30;;;;;;;8.35;6.45;;;10.40;99.90;;;;;;5041388;28;20052;-84
2022/05/26 03:07:03;;;;;;;10.90;6.43;;;10.40;99.90;;;;;;5042262;28;20047;-84
2022/05/26 03:09:33;;;;;;;10.73;5.78;;;10.40;99.90;;;;;;5035855;28;20059;-84
2022/05/26 03:11:59;;;;;;;;;;;10.40;99.90;;;;;;5041984;28;20017;-84
2022/05/26 03:14:26;;;;;;;14.02;6.97;;;10.40;99.90;;;;;;5039200;28;19909;-84
2022/05/26 03:16:52;;;;;;;8.27;5.93;;;10.30;99.90;;;;;;5038233;28;20072;-84
2022/05/26 03:19:19;;;;;;;8.00;5.65;;;10.30;99.90;;;;;;5033235;28;20029;-84
2022/05/26 03:21:45;;;;;;;12.10;6.60;;;10.20;99.90;;;;;;5037360;28;20035;-84
2022/05/26 03:24:11;;;;;;;9.18;6.28;;;10.20;99.90;;;;;;5034343;28;20030;-85
2022/05/26 03:26:37;;;;;;;9.55;5.95;;;10.20;99.90;;;;;;5032751;28;20084;-84
2022/05/26 03:29:05;;;;;;;10.77;7.53;;;10.10;99.90;;;;;;5035110;28;20021;-85
2022/05/26 03:31:31;;;;;;;9.98;6.97;;;10.10;99.90;;;;;;5044921;28;20048;-84
2022/05/26 03:42:12;;;;;;;14.50;7.03;;;10.40;99.90;;;;;;5033271;28;20092;-84
2022/05/26 03:44:38;;;;;;;11.65;7.15;;;10.50;99.90;;;;;;5033303;28;20021;-87
2022/05/26 03:47:04;;;;;;;9.68;6.57;;;10.50;99.90;;;;;;5034012;28;20728;-84
2022/05/26 03:49:30;;;;;;;11.98;6.32;;;10.60;99.90;;;;;;5034804;28;20496;-84
2022/05/26 03:51:58;;;;;;;9.52;6.55;;;10.60;99.90;;;;;;5050753;28;20084;-84
2022/05/26 03:54:30;;;;;;;11.80;6.57;;;10.60;99.90;;;;;;5030068;28;20025;-85
2022/05/26 03:56:57;;;;;;;8.90;6.22;;;10.50;99.90;;;;;;5034501;28;20033;-84
2022/05/26 03:59:22;;;;;;;11.98;6.55;;;10.50;99.90;;;;;;5041403;28;20504;-84
2022/05/26 04:01:48;;;;;;;12.90;7.63;;;10.50;99.90;;;;;;5048034;28;20500;-83
2022/05/26 04:04:14;;;;;;;9.68;6.47;;;10.40;99.90;;;;;;5039318;28;20048;-85
2022/05/26 04:06:40;;;;;;;10.55;6.82;;;10.40;99.90;;;;;;5042373;28;20040;-84
2022/05/26 04:09:06;;;;;;;11.45;6.32;;;10.40;99.90;;;;;;5039123;28;20397;-84
2022/05/26 04:11:31;;;;;;;13.23;7.63;;;10.50;99.90;;;;;;5042072;28;20532;-83
2022/05/26 04:13:57;;;;;;;13.73;7.43;;;10.50;99.90;;;;;;5037235;28;20408;-83
2022/05/26 04:16:23;;;;;;;17.30;7.93;;;10.50;99.90;;;;;;5038919;28;20447;-85
2022/05/26 04:18:51;;;;;;;12.52;7.90;;;10.60;99.90;;;;;;5034680;28;20451;-83
2022/05/26 04:21:17;;;;;;;11.30;7.25;;;10.60;99.90;;;;;;5050495;28;20033;-84
2022/05/26 04:23:43;;;;;;;14.82;8.00;;;10.70;99.90;;;;;;5032098;28;20033;-84
2022/05/26 04:26:09;;;;;;;11.02;6.72;;;10.80;99.90;;;;;;5032329;28;20033;-84
2022/05/26 04:28:35;;;;;;;11.30;7.68;;;10.80;99.90;;;;;;5037566;28;20795;-84
2022/05/26 04:31:02;;;;;;;9.63;6.90;;;10.90;99.90;;;;;;5032251;28;20132;-84
2022/05/26 04:33:29;;;;;;;12.10;6.95;;;11.10;99.90;;;;;;5035221;28;20056;-84
2022/05/26 04:35:54;;;;;;;12.20;7.03;;;11.10;99.90;;;;;;5039117;28;20496;-83
2022/05/26 04:38:20;;;;;;;13.73;6.97;;;11.10;99.90;;;;;;5036734;28;20048;-84
2022/05/26 04:40:55;;;;;;;13.65;7.85;;;11.30;99.90;;;;;;5040674;28;20018;-83
2022/05/26 04:43:21;;;;;;;12.90;7.93;;;11.30;99.90;;;;;;5034211;28;20041;-83
2022/05/26 04:45:46;;;;;;;9.45;7.15;;;11.30;99.90;;;;;;5039228;28;20395;-83
2022/05/26 04:48:13;;;;;;;16.05;8.02;;;11.40;99.90;;;;;;5036657;28;20432;-89
2022/05/26 04:50:39;;;;;;;10.48;7.40;;;11.50;99.90;;;;;;5034748;28;20021;-83
2022/05/26 04:53:05;;;;;;;12.43;6.88;;;11.60;99.90;;;;;;5027825;28;20025;-80
2022/05/26 04:55:30;;;;;;;7.68;5.70;;;11.70;99.90;;;;;;5024140;28;20037;-82
2022/05/26 04:57:56;;;;;;;11.02;7.20;;;11.70;99.90;;;;;;5028977;28;20087;-83
2022/05/26 05:00:22;;;;;;;8.80;6.13;;;11.80;99.90;;;;;;5025076;28;20033;-82
2022/05/26 05:02:48;;;;;;;9.38;6.05;;;11.80;99.90;;;;;;5028914;28;20037;-83
2022/05/26 05:05:13;;;;;;;9.23;6.28;;;11.80;99.90;;;;;;5030881;28;20033;-82
2022/05/26 05:07:39;;;;;;;10.18;6.45;;;11.70;99.90;;;;;;5029658;28;20118;-82
2022/05/26 05:10:05;;;;;;;12.95;5.82;;;11.70;99.90;;;;;;5029323;28;20025;-82
2022/05/26 05:12:31;;;;;;;11.32;6.20;;;11.70;99.90;;;;;;5024746;28;20038;-83
2022/05/26 05:14:57;;;;;;;10.10;6.15;;;11.70;99.90;;;;;;5027438;28;20140;-83
2022/05/26 05:17:25;;;;;;;10.30;6.22;;;11.70;99.90;;;;;;5036442;28;20021;-83
2022/05/26 05:19:51;;;;;;;13.43;6.30;;;11.80;99.90;;;;;;5049410;28;20124;-82
2022/05/26 05:22:30;;;;;;;9.18;6.82;;;11.70;99.90;;;;;;5023923;28;20120;-87
2022/05/26 05:25:06;;;;;;;7.97;5.72;;;11.90;99.90;;;;;;5029486;28;20095;-83
2022/05/26 05:27:38;;;;;;;10.93;5.90;;;11.90;99.90;;;;;;5042217;28;20044;-83
2022/05/26 05:30:30;;;;;;;8.30;5.38;;;12.10;99.90;;;;;;5039157;28;20013;-84
2022/05/26 05:33:15;;;;;;;10.25;5.10;;;12.20;99.90;;;;;;5020967;28;20120;-83
2022/05/26 05:36:12;;;;;;;8.23;5.45;;;12.50;99.90;;;;;;5031751;28;20112;-84
2022/05/26 05:38:40;;;;;;;9.02;4.70;;;12.80;99.90;;;;;;5038902;28;20053;-83
2022/05/26 05:41:07;;;;;;;7.70;5.25;;;12.90;99.90;;;;;;5034676;28;20088;-84
2022/05/26 05:43:34;;;;;;;11.95;5.00;;;12.80;99.90;;;;;;5035078;28;20033;-77
2022/05/26 05:46:01;;;;;;;9.75;4.85;;;12.80;99.90;;;;;;5033874;28;20563;-78
2022/05/26 05:48:27;;;;;;;5.65;3.80;;;12.80;99.90;;;;;;5034038;28;20055;-86
2022/05/26 05:50:53;;;;;;;5.57;4.03;;;12.80;99.90;;;;;;5014125;28;20033;-84
2022/05/26 05:53:19;;;;;;;6.93;3.75;;;13.00;99.90;;;;;;5026637;28;20026;-85
2022/05/26 05:55:45;;;;;;;5.85;4.43;;;13.00;99.90;;;;;;5026483;28;20041;-85
2022/05/26 05:58:11;;;;;;;7.28;4.18;;;13.10;99.90;;;;;;5031308;28;20041;-83
2022/05/26 06:00:40;;;;;;;5.93;3.95;;;13.20;99.90;;;;;;5031117;28;20040;-86
2022/05/26 06:03:06;;;;;;;7.82;4.63;;;13.30;99.90;;;;;;5036939;28;20087;-87
2022/05/26 06:05:33;;;;;;;7.70;4.45;;;13.40;99.90;;;;;;5038730;28;20456;-85
2022/05/26 06:07:59;;;;;;;7.03;3.78;;;13.40;99.90;;;;;;5038343;28;20042;-85
2022/05/26 06:10:25;;;;;;;6.15;3.63;;;13.60;99.90;;;;;;5034224;28;20369;-85
2022/05/26 06:12:51;;;;;;;4.53;3.40;;;13.60;99.90;;;;;;5036541;28;20095;-85
2022/05/26 06:15:18;;;;;;;5.70;3.63;;;13.70;99.90;;;;;;5033787;28;20029;-85
2022/05/26 06:17:44;;;;;;;5.63;3.80;;;13.80;99.90;;;;;;5049665;28;20028;-85
2022/05/26 06:20:11;;;;;;;6.32;3.67;;;13.90;99.90;;;;;;5034270;28;20084;-85
2022/05/26 06:22:40;;;;;;;8.68;4.10;;;14.10;99.90;;;;;;5028432;28;20060;-84
2022/05/26 06:25:08;;;;;;;6.05;3.85;;;14.10;99.90;;;;;;5042817;28;20409;-85
2022/05/26 06:30:20;;;;;;;6.60;3.50;;;14.40;99.90;;;;;;5041470;28;20609;-84
2022/05/26 06:38:18;;;;;;;6.55;3.40;;;15.10;99.90;;;;;;5034521;28;20395;-83
2022/05/26 06:40:44;;;;;;;5.60;3.17;;;15.60;99.10;;;;;;5036608;28;20174;-83
2022/05/26 06:43:10;;;;;;;3.95;3.17;;;16.00;99.80;;;;;;5031673;28;20110;-82
2022/05/26 06:45:36;;;;;;;4.65;2.97;;;16.10;94.20;;;;;;5030172;28;20446;-82
2022/05/26 06:48:01;;;;;;;3.33;2.40;;;16.10;95.70;;;;;;5027792;28;20101;-82
2022/05/26 06:50:27;;;;;;;4.43;2.92;;;16.20;96.50;;;;;;5032807;28;20124;-82
2022/05/26 06:52:53;;;;;;;5.53;3.33;;;16.10;95.00;;;;;;5030377;28;20029;-80
2022/05/26 06:55:19;;;;;;;4.13;2.75;;;15.90;94.30;;;;;;5025375;28;20080;-77
2022/05/26 06:57:44;;;;;;;3.20;2.20;;;15.80;97.20;;;;;;5034848;28;20404;-77
2022/05/26 07:00:12;;;;;;;3.38;2.28;;;16.00;93.90;;;;;;5030840;28;20044;-78
2022/05/26 07:02:38;;;;;;;4.07;2.17;;;16.30;94.80;;;;;;5028295;28;20038;-79
2022/05/26 07:05:05;;;;;;;3.95;2.20;;;16.20;90.30;;;;;;5030688;28;20036;-79
2022/05/26 07:07:32;;;;;;;3.42;1.92;;;16.20;89.20;;;;;;5035346;28;20052;-78
2022/05/26 07:09:59;;;;;;;3.78;2.20;;;16.10;90.70;;;;;;5030396;28;20026;-78
2022/05/26 07:12:24;;;;;;;8.05;3.20;;;16.20;85.20;;;;;;5054608;28;20029;-73
2022/05/26 07:14:51;;;;;;;4.22;1.90;;;16.20;85.50;;;;;;5026773;28;20039;-78
2022/05/26 07:17:17;;;;;;;3.70;1.70;;;16.20;86.30;;;;;;5022184;28;20049;-78
2022/05/26 07:19:43;;;;;;;3.35;2.08;;;16.20;75.50;;;;;;5023951;28;20561;-78
2022/05/26 07:22:09;;;;;;;3.40;1.67;;;16.00;80.00;;;;;;5027365;28;20046;-78
2022/05/26 07:24:35;;;;;;;5.38;1.67;;;16.10;83.20;;;;;;5023990;28;20507;-79
2022/05/26 07:27:01;;;;;;;2.10;1.40;;;16.20;79.50;;;;;;5030099;28;20038;-80
2022/05/26 07:29:27;;;;;;;4.80;1.50;;;16.40;84.20;;;;;;5028257;28;20108;-77
2022/05/26 07:31:54;;;;;;;3.63;2.53;;;16.60;79.40;;;;;;5035882;28;20041;-78
2022/05/26 07:34:20;;;;;;;3.30;1.58;;;16.70;71.60;;;;;;5034981;28;20045;-78
2022/05/26 07:42:20;;;;;;;3.15;1.55;;;17.30;74.60;;;;;;5034815;28;20523;-80
2022/05/26 07:44:48;;;;;;;2.25;1.40;;;17.80;75.60;;;;;;5035438;28;20033;-78
2022/05/26 07:47:14;;;;;;;5.80;1.90;;;17.90;68.80;;;;;;5034463;28;20025;-77
2022/05/26 07:49:47;;;;;;;1.40;1.13;;;17.90;68.20;;;;;;5031669;28;20531;-77
2022/05/26 07:52:14;;;;;;;4.55;1.20;;;18.10;65.10;;;;;;5045122;28;20045;-79
2022/05/26 07:54:40;;;;;;;9.82;1.70;;;18.10;67.00;;;;;;5025206;28;20492;-76
2022/05/26 07:57:10;;;;;;;2.55;1.38;;;17.80;64.30;;;;;;5026229;28;20029;-77
2022/05/26 07:59:36;;;;;;;2.38;1.90;;;17.80;66.10;;;;;;5017340;28;20038;-78
2022/05/26 08:02:02;;;;;;;3.67;1.20;;;18.10;64.90;;;;;;5027651;28;20045;-84
2022/05/26 08:04:28;;;;;;;3.17;1.60;;;18.80;68.40;;;;;;5030705;28;20029;-80
2022/05/26 08:06:54;;;;;;;3.13;1.02;;;19.40;64.30;;;;;;5037093;28;20046;-77
2022/05/26 08:09:21;;;;;;;2.50;1.63;;;19.10;62.70;;;;;;5032560;28;20576;-76
2022/05/26 08:11:47;;;;;;;3.63;1.63;;;18.90;58.10;;;;;;5035518;28;20075;-78
2022/05/26 08:14:13;;;;;;;3.78;1.40;;;19.30;60.80;;;;;;5028478;28;20460;-79
2022/05/26 08:16:40;;;;;;;2.13;1.58;;;19.20;60.10;;;;;;5033124;28;20060;-79
2022/05/26 08:19:06;;;;;;;1.45;1.20;;;19.10;63.00;;;;;;5029949;28;20083;-77
2022/05/26 08:21:33;;;;;;;2.15;1.70;;;18.80;59.40;;;;;;5027642;28;20037;-78
2022/05/26 08:24:00;;;;;;;2.65;1.63;;;19.10;60.60;;;;;;5028158;28;20055;-78
2022/05/26 08:26:30;;;;;;;2.97;1.30;;;19.20;57.50;;;;;;5028926;28;20025;-81
2022/05/26 08:28:57;;;;;;;5.75;1.33;;;19.30;57.00;;;;;;5034817;28;20208;-77
2022/05/26 08:31:23;;;;;;;3.35;1.35;;;19.50;60.80;;;;;;5037632;28;20492;-78
2022/05/26 08:33:50;;;;;;;2.88;1.20;;;19.40;60.30;;;;;;5030957;28;20368;-78
2022/05/26 08:36:20;;;;;;;2.05;1.38;;;19.50;59.60;;;;;;5033773;28;20021;-82
2022/05/26 08:38:46;;;;;;;4.40;1.52;;;19.50;55.80;;;;;;5026872;28;20076;-77
2022/05/26 08:41:19;;;;;;;3.45;1.40;;;19.70;57.80;;;;;;5050242;28;20535;-78
2022/05/26 08:43:55;;;;;;;2.92;1.48;;;19.60;56.00;;;;;;5030525;28;21213;-79
2022/05/26 08:46:21;;;;;;;2.28;1.30;;;20.00;57.00;;;;;;5030589;28;20030;-77
2022/05/26 08:49:08;;;;;;;2.38;1.13;;;19.70;55.10;;;;;;5026636;28;20040;-78
2022/05/26 08:52:06;;;;;;;2.40;1.17;;;19.80;58.60;;;;;;5027151;28;20734;-78
2022/05/26 08:54:44;;;;;;;3.25;1.60;;;19.60;57.40;;;;;;5032891;28;20052;-78
2022/05/26 08:57:14;;;;;;;3.35;1.40;;;19.30;57.30;;;;;;5022900;28;20030;-79
2022/05/26 08:59:44;;;;;;;3.80;1.45;;;19.50;59.80;;;;;;5024416;28;20036;-78
2022/05/26 09:02:33;;;;;;;2.55;1.48;;;19.50;58.50;;;;;;5051569;28;20033;-74
2022/05/26 09:05:02;;;;;;;3.00;1.40;;;19.40;57.90;;;;;;5016852;28;20106;-76
2022/05/26 09:13:12;;;;;;;4.30;1.80;;;19.80;54.90;;;;;;5028405;28;20087;-81
2022/05/26 09:15:38;;;;;;;5.80;1.60;;;19.80;57.90;;;;;;5031730;28;20396;-79
2022/05/26 09:18:19;;;;;;;1.90;1.10;;;20.00;52.60;;;;;;5049231;28;20073;-79
2022/05/26 09:20:47;;;;;;;3.08;1.20;;;20.30;55.80;;;;;;5028082;28;20689;-78
2022/05/26 09:23:23;;;;;;;6.57;1.83;;;20.40;55.10;;;;;;5022569;28;20092;-79
2022/05/26 09:25:51;;;;;;;2.92;1.25;;;19.90;53.00;;;;;;5036438;28;20025;-83
2022/05/26 09:28:34;;;;;;;2.30;1.30;;;20.30;54.10;;;;;;5039321;28;20017;-79
2022/05/26 09:31:25;;;;;;;2.47;1.45;;;20.60;52.10;;;;;;5039830;28;20048;-78
2022/05/26 09:34:14;;;;;;;2.03;1.10;;;19.90;55.00;;;;;;5031461;28;20095;-79
2022/05/26 09:37:04;;;;;;;2.83;1.40;;;20.00;56.90;;;;;;5040877;28;20025;-78
2022/05/26 09:39:38;;;;;;;1.83;1.40;;;20.00;55.50;;;;;;5021136;28;20029;-78
2022/05/26 09:42:28;;;;;;;2.50;1.50;;;20.00;56.60;;;;;;5016534;28;20042;-78
2022/05/26 09:45:11;;;;;;;3.58;1.45;;;19.80;54.50;;;;;;5030583;28;20036;-74
2022/05/26 09:47:57;;;;;;;2.97;1.25;;;19.90;54.50;;;;;;5031213;28;20033;-75
2022/05/26 09:50:37;;;;;;;3.63;1.38;;;19.70;55.20;;;;;;5026275;28;20048;-76
2022/05/26 09:53:10;;;;;;;1.98;1.35;;;20.50;57.70;;;;;;5025690;28;20029;-75
2022/05/26 09:55:49;;;;;;;2.45;1.55;;;20.40;51.90;;;;;;5025452;28;20060;-77
2022/05/26 09:58:31;;;;;;;2.53;1.50;;;19.90;53.20;;;;;;5039991;28;20070;-74
2022/05/26 10:01:29;;;;;;;1.88;1.27;;;19.90;54.10;;;;;;5036336;28;20037;-76
2022/05/26 10:04:16;;;;;;;2.67;1.50;;;20.60;53.80;;;;;;5019304;28;20128;-76
2022/05/26 10:07:03;;;;;;;3.35;1.60;;;20.60;53.20;;;;;;5033058;28;20064;-78
2022/05/26 10:10:04;;;;;;;2.00;1.38;;;20.00;53.20;;;;;;5050554;28;20025;-78
2022/05/26 10:12:47;;;;;;;1.75;1.45;;;20.40;52.30;;;;;;5035330;28;20025;-77
2022/05/26 10:15:51;;;;;;;4.90;1.20;;;21.40;49.90;;;;;;5032617;28;20575;-77
2022/05/26 10:18:36;;;;;;;5.28;1.40;;;21.90;51.60;;;;;;5030059;28;20534;-77
2022/05/26 10:21:23;;;;;;;2.63;2.05;;;22.00;47.80;;;;;;5027896;28;20091;-77
2022/05/26 10:23:57;;;;;;;3.85;1.20;;;21.60;48.50;;;;;;5045240;28;20051;-76
2022/05/26 10:27:03;;;;;;;1.48;1.20;;;21.30;52.20;;;;;;5052421;28;20025;-77
2022/05/26 10:29:50;;;;;;;2.45;1.52;;;20.70;49.10;;;;;;4986028;28;20072;-76
2022/05/26 10:32:39;;;;;;;2.10;1.10;;;20.50;52.70;;;;;;5032577;28;20400;-75
2022/05/26 10:35:20;;;;;;;3.65;1.30;;;20.70;51.70;;;;;;5036040;28;20098;-78
2022/05/26 10:38:05;;;;;;;1.25;1.10;;;20.80;54.30;;;;;;5028878;28;20039;-76
2022/05/26 10:41:09;;;;;;;2.40;1.30;;;20.90;52.70;;;;;;5035091;28;20555;-76
2022/05/26 10:43:47;;;;;;;2.25;1.40;;;21.00;52.30;;;;;;4956575;28;20043;-77
2022/05/26 10:46:16;;;;;;;3.50;1.50;;;21.20;50.30;;;;;;5033472;28;20017;-82
2022/05/26 10:48:44;;;;;;;6.65;1.40;;;21.10;49.60;;;;;;5031749;28;20048;-81
2022/05/26 10:51:19;;;;;;;2.53;1.50;;;20.80;52.70;;;;;;5029848;28;20109;-80
2022/05/26 10:53:50;;;;;;;5.80;1.38;;;20.80;53.40;;;;;;5012304;28;20025;-79
2022/05/26 10:56:28;;;;;;;5.88;1.58;;;20.70;51.90;;;;;;5033963;28;20036;-80
2022/05/26 10:59:09;;;;;;;3.25;1.40;;;21.10;56.00;;;;;;5032766;28;20129;-79
2022/05/26 11:01:42;;;;;;;2.55;1.50;;;21.50;52.20;;;;;;5027946;28;20029;-79
2022/05/26 11:04:34;;;;;;;3.85;1.10;;;21.80;50.10;;;;;;5025393;28;20083;-79
2022/05/26 11:07:05;;;;;;;1.88;1.05;;;21.40;49.60;;;;;;5042761;28;20037;-80
2022/05/26 11:09:59;;;;;;;2.05;1.25;;;20.80;50.30;;;;;;5026987;28;20030;-80
2022/05/26 11:12:31;;;;;;;4.40;1.25;;;20.70;50.40;;;;;;5029283;28;20032;-79
2022/05/26 11:18:01;;;;;;;2.67;1.27;;;21.30;51.00;;;;;;5034451;28;20044;-80
2022/05/26 11:20:42;;;;;;;1.67;1.30;;;21.50;51.10;;;;;;5033353;28;20041;-81
2022/05/26 11:23:08;;;;;;;1.60;1.40;;;21.70;51.70;;;;;;5033457;28;20037;-81
2022/05/26 11:26:02;;;;;;;3.22;1.80;;;21.90;48.90;;;;;;5037952;28;20488;-80
2022/05/26 11:28:45;;;;;;;2.83;1.38;;;21.70;50.50;;;;;;5043267;28;20028;-80
2022/05/26 11:37:29;;;;;;;1.48;1.38;;;23.20;50.70;;;;;;5035313;28;20063;-85
2022/05/26 11:40:00;;;;;;;2.15;1.33;;;22.20;45.40;;;;;;5032906;28;20038;-81
2022/05/26 11:42:39;;;;;;;3.25;1.20;;;21.60;50.60;;;;;;5035377;28;20030;-87
2022/05/26 11:45:13;;;;;;;3.53;1.10;;;21.50;51.00;;;;;;5036679;28;20060;-81
2022/05/26 11:47:51;;;;;;;4.45;1.55;;;21.80;50.70;;;;;;5032954;28;20095;-81
2022/05/26 11:50:25;;;;;;;2.58;1.13;;;22.60;49.90;;;;;;5047816;28;20123;-83
2022/05/26 11:52:54;;;;;;;2.80;1.10;;;23.50;49.20;;;;;;5028649;28;20069;-77
2022/05/26 11:55:47;;;;;;;1.52;1.00;;;23.90;48.50;;;;;;5053719;28;20506;-80
2022/05/26 11:58:35;;;;;;;10.40;1.50;;;23.70;45.00;;;;;;5023519;28;20021;-81
2022/05/26 12:01:21;;;;;;;2.10;1.33;;;23.50;46.00;;;;;;5037291;28;20053;-80
2022/05/26 12:04:04;;;;;;;4.43;1.40;;;25.20;45.50;;;;;;5039601;28;20021;-80
2022/05/26 12:06:37;;;;;;;1.23;1.13;;;24.60;45.70;;;;;;5042760;28;20045;-81
2022/05/26 12:09:21;;;;;;;1.60;1.00;;;24.10;44.10;;;;;;5036070;28;20523;-82
2022/05/26 12:11:50;;;;;;;3.67;1.13;;;23.50;45.90;;;;;;5033895;28;20025;-80
2022/05/26 12:14:29;;;;;;;1.83;1.40;;;23.70;45.40;;;;;;5052406;28;20500;-80
2022/05/26 12:17:34;;;;;;;1.90;1.30;;;22.90;44.20;;;;;;5031504;28;20080;-81
2022/05/26 12:20:12;;;;;;;2.15;1.35;;;22.70;49.00;;;;;;5052564;28;20037;-81
2022/05/26 12:22:55;;;;;;;2.85;1.00;;;22.60;45.10;;;;;;5028603;28;20029;-81
2022/05/26 12:25:35;;;;;;;1.70;1.00;;;22.50;48.00;;;;;;5036544;28;20075;-81
2022/05/26 12:28:10;;;;;;;2.33;1.40;;;22.70;45.40;;;;;;5037617;28;20052;-82
2022/05/26 12:30:44;;;;;;;2.45;1.20;;;22.30;44.50;;;;;;5034413;28;20038;-80
2022/05/26 12:33:19;;;;;;;2.33;1.27;;;22.20;45.70;;;;;;5032365;28;20232;-81
2022/05/26 12:36:16;;;;;;;2.72;1.38;;;22.60;47.50;;;;;;5032302;28;20021;-82
2022/05/26 12:38:53;;;;;;;1.48;1.20;;;23.10;45.90;;;;;;5040670;28;20025;-81
2022/05/26 12:41:43;;;;;;;3.78;1.33;;;23.50;44.60;;;;;;5030270;28;20025;-81
2022/05/26 12:44:48;;;;;;;2.90;1.30;;;23.10;42.90;;;;;;5032579;28;20033;-80
2022/05/26 12:47:34;;;;;;;2.00;0.98;;;24.40;44.30;;;;;;5012624;28;20041;-80
2022/05/26 12:50:14;;;;;;;1.63;1.05;;;26.20;38.00;;;;;;5043196;28;20021;-86
2022/05/26 12:53:07;;;;;;;3.58;1.10;;;24.60;38.80;;;;;;5029815;28;20096;-81
2022/05/26 12:55:38;;;;;;;2.15;0.95;;;24.20;42.60;;;;;;5004649;28;20056;-80
2022/05/26 12:58:03;;;;;;;4.05;1.40;;;23.30;42.30;;;;;;5039226;28;20094;-82
2022/05/26 13:00:35;;;;;;;1.35;1.20;;;22.90;42.40;;;;;;5041174;28;20033;-80
2022/05/26 13:03:06;;;;;;;2.42;1.20;;;22.80;45.70;;;;;;5036005;28;20044;-80
2022/05/26 13:05:35;;;;;;;2.60;1.23;;;23.00;44.80;;;;;;5028561;28;20072;-81
2022/05/26 13:08:02;;;;;;;2.22;1.15;;;22.80;43.50;;;;;;5030908;28;20061;-80
2022/05/26 13:10:35;;;;;;;1.17;1.05;;;22.80;45.60;;;;;;5023951;28;20037;-77
2022/05/26 13:13:05;;;;;;;2.20;1.33;;;22.50;44.20;;;;;;5029282;28;20484;-75
2022/05/26 13:15:30;;;;;;;5.38;1.38;;;22.50;45.50;;;;;;5047010;28;20552;-79
2022/05/26 13:17:56;;;;;;;1.95;1.05;;;22.50;44.80;;;;;;5032160;28;20124;-80
2022/05/26 13:20:30;;;;;;;3.42;1.10;;;22.80;45.90;;;;;;5028969;28;20496;-79
2022/05/26 13:22:55;;;;;;;1.80;1.10;;;23.50;44.30;;;;;;5030196;28;20100;-80
2022/05/26 13:25:27;;;;;;;2.97;1.17;;;24.40;45.50;;;;;;5049745;28;20141;-79
2022/05/26 13:27:56;;;;;;;1.30;1.05;;;23.70;40.80;;;;;;5042352;28;20037;-79
2022/05/26 13:33:27;;;;;;;5.03;1.30;;;23.40;43.40;;;;;;5040129;28;20044;-78
2022/05/26 13:36:02;;;;;;;1.10;1.00;;;23.10;44.50;;;;;;5036195;28;20071;-78
2022/05/26 13:38:30;;;;;;;1.70;1.30;;;22.70;46.80;;;;;;5035127;28;20484;-79
2022/05/26 13:40:57;;;;;;;1.20;0.95;;;22.40;46.10;;;;;;5033776;28;20139;-77
2022/05/26 13:43:23;;;;;;;1.70;1.02;;;22.20;46.30;;;;;;5032583;28;20033;-78
2022/05/26 13:45:49;;;;;;;2.65;1.67;;;21.90;46.80;;;;;;5032605;28;20048;-78
2022/05/26 13:48:30;;;;;;;3.20;1.20;;;22.00;49.90;;;;;;5029767;28;20037;-79
2022/05/26 13:51:21;;;;;;;2.15;1.00;;;21.90;47.50;;;;;;5052831;28;20021;-79
2022/05/26 13:54:11;;;;;;;3.75;1.10;;;22.60;47.20;;;;;;5021011;28;20049;-79
2022/05/26 13:56:37;;;;;;;1.83;1.17;;;23.50;44.20;;;;;;5040890;28;20079;-78
2022/05/26 13:59:11;;;;;;;1.50;1.10;;;24.30;43.50;;;;;;5040252;28;20400;-79
2022/05/26 14:01:52;;;;;;;3.60;0.98;;;24.30;42.10;;;;;;5035691;28;20041;-79